Time;durP1;ratioP1;P1;durP2;ratioP2;P2;SDS_P1;SDS_P2;PMS_P1;PMS_P2;Temp;Humidity;BMP_temperature;BMP_pressure;BME280_temperature;BME280_humidity;BME280_pressure;Samples;Min_cycle;Max_cycle;Signal;HPM_P1;HPM_P2
2024/01/10 00:00:19;;;;;;;;;;;;;;;;;;5111619;27;20002;-74
2024/01/10 00:02:45;;;;;;;;;;;;;;;;;;5091954;28;19967;-73
2024/01/10 00:05:11;;;;;;;;;;;;;;;;;;5111300;27;20364;-73
2024/01/10 00:07:36;;;;;;;;;;;;;;;;;;5111155;27;20680;-73
2024/01/10 00:10:02;;;;;;;;;;;;;;;;;;5108753;27;19958;-74
2024/01/10 00:12:33;;;;;;;;;;;;;;;;;;5092526;27;19942;-74
2024/01/10 00:14:59;;;;;;;;;;;;;;;;;;5113108;27;20018;-74
2024/01/10 00:17:25;;;;;;;;;;;;;;;;;;5106582;27;20030;-73
2024/01/10 00:19:51;;;;;;;;;;;;;;;;;;5112928;27;20193;-74
2024/01/10 00:22:17;;;;;;;;;;;;;;;;;;5105483;28;19928;-74
2024/01/10 00:24:43;;;;;;;;;;;;;;;;;;5091518;27;20006;-74
2024/01/10 00:27:10;;;;;;;;;;;;;;;;;;5093730;27;20312;-74
2024/01/10 00:29:36;;;;;;;;;;;;;;;;;;5091191;27;19923;-74
2024/01/10 00:32:01;;;;;;;;;;;;;;;;;;5125638;27;19977;-74
2024/01/10 00:34:27;;;;;;;;;;;;;;;;;;5128822;27;19919;-74
2024/01/10 00:36:53;;;;;;;;;;;;;;;;;;5121011;27;20001;-74
2024/01/10 00:39:19;;;;;;;;;;;;;;;;;;5112900;27;20441;-74
2024/01/10 00:41:45;;;;;;;;;;;;;;;;;;5109831;27;19977;-74
2024/01/10 00:44:11;;;;;;;;;;;;;;;;;;5106511;27;19951;-74
2024/01/10 00:46:37;;;;;;;;;;;;;;;;;;5110937;27;20653;-74
2024/01/10 00:49:03;;;;;;;;;;;;;;;;;;5110603;27;19923;-74
2024/01/10 00:51:29;;;;;;;;;;;;;;;;;;5110684;27;19923;-73
2024/01/10 00:53:55;;;;;;;;;;;;;;;;;;5112260;27;20377;-73
2024/01/10 00:56:21;;;;;;;;;;;;;;;;;;5111217;27;20795;-73
2024/01/10 00:58:47;;;;;;;;;;;;;;;;;;5108020;27;19958;-74
2024/01/10 01:01:14;;;;;;;;;;;;;;;;;;5108102;27;20014;-74
2024/01/10 01:03:40;;;;;;;;;;;;;;;;;;5092038;28;19924;-74
2024/01/10 01:06:06;;;;;;;;;;;;;;;;;;5122407;27;19926;-74
2024/01/10 01:08:32;;;;;;;;;;;;;;;;;;5105511;27;19967;-74
2024/01/10 01:10:58;;;;;;;;;;;;;;;;;;5093260;28;19961;-74
2024/01/10 01:13:23;;;;;;;;;;;;;;;;;;5105505;28;19927;-74
2024/01/10 01:15:49;;;;;;;;;;;;;;;;;;5107418;27;19919;-74
2024/01/10 01:18:15;;;;;;;;;;;;;;;;;;5112741;28;20360;-74
2024/01/10 01:20:41;;;;;;;;;;;;;;;;;;5112209;28;19990;-74
2024/01/10 01:23:07;;;;;;;;;;;;;;;;;;5103914;28;19923;-74
2024/01/10 01:25:33;;;;;;;;;;;;;;;;;;5104190;28;20672;-74
2024/01/10 01:27:59;;;;;;;;;;;;;;;;;;5104077;28;19951;-74
2024/01/10 01:30:25;;;;;;;;;;;;;;;;;;5100573;28;19970;-74
2024/01/10 01:32:51;;;;;;;;;;;;;;;;;;5088738;28;19923;-74
2024/01/10 01:35:21;;;;;;;;;;;;;;;;;;5109223;28;19938;-74
2024/01/10 01:37:47;;;;;;;;;;;;;;;;;;5104824;28;20373;-74
2024/01/10 01:40:13;;;;;;;;;;;;;;;;;;5105528;28;19924;-73
2024/01/10 01:42:39;;;;;;;;;;;;;;;;;;5105126;28;19927;-74
2024/01/10 01:45:05;;;;;;;;;;;;;;;;;;5109129;28;19977;-74
2024/01/10 01:47:31;;;;;;;;;;;;;;;;;;5088806;28;20364;-74
2024/01/10 01:49:56;;;;;;;;;;;;;;;;;;5112503;28;19920;-73
2024/01/10 01:52:22;;;;;;;;;;;;;;;;;;5089743;28;19931;-73
2024/01/10 01:54:48;;;;;;;;;;;;;;;;;;5090360;28;19923;-73
2024/01/10 01:57:14;;;;;;;;;;;;;;;;;;5106575;28;20001;-74
2024/01/10 01:59:40;;;;;;;;;;;;;;;;;;5100628;28;21640;-74
2024/01/10 02:02:06;;;;;;;;;;;;;;;;;;5106324;28;19923;-74
2024/01/10 02:04:32;;;;;;;;;;;;;;;;;;5103495;28;19919;-74
2024/01/10 02:06:58;;;;;;;;;;;;;;;;;;5107208;28;19923;-74
2024/01/10 02:09:24;;;;;;;;;;;;;;;;;;5093226;28;19965;-74
2024/01/10 02:11:50;;;;;;;;;;;;;;;;;;5106058;28;19927;-74
2024/01/10 02:14:16;;;;;;;;;;;;;;;;;;5105692;28;19931;-74
2024/01/10 02:16:42;;;;;;;;;;;;;;;;;;5092014;27;19923;-74
2024/01/10 02:19:08;;;;;;;;;;;;;;;;;;5111420;27;20384;-74
2024/01/10 02:21:34;;;;;;;;;;;;;;;;;;5114895;27;19923;-73
2024/01/10 02:24:00;;;;;;;;;;;;;;;;;;5115516;27;19930;-74
2024/01/10 02:26:27;;;;;;;;;;;;;;;;;;5109569;28;19919;-74
2024/01/10 02:28:52;;;;;;;;;;;;;;;;;;5111059;27;20486;-74
2024/01/10 02:31:18;;;;;;;;;;;;;;;;;;5099992;27;19930;-74
2024/01/10 02:33:44;;;;;;;;;;;;;;;;;;5096434;27;19920;-74
2024/01/10 02:36:10;;;;;;;;;;;;;;;;;;5114859;27;20466;-73
2024/01/10 02:38:36;;;;;;;;;;;;;;;;;;5119699;27;20393;-75
2024/01/10 02:41:02;;;;;;;;;;;;;;;;;;5116983;27;19927;-72
2024/01/10 02:43:28;;;;;;;;;;;;;;;;;;5115463;27;19920;-73
2024/01/10 02:45:54;;;;;;;;;;;;;;;;;;5094123;27;19927;-72
2024/01/10 02:48:20;;;;;;;;;;;;;;;;;;5115983;27;19919;-72
2024/01/10 02:50:46;;;;;;;;;;;;;;;;;;5100463;27;20002;-72
2024/01/10 02:53:12;;;;;;;;;;;;;;;;;;5098449;27;20466;-73
2024/01/10 02:55:38;;;;;;;;;;;;;;;;;;5111631;27;19958;-73
2024/01/10 02:58:04;;;;;;;;;;;;;;;;;;5116013;27;19987;-73
2024/01/10 03:00:30;;;;;;;;;;;;;;;;;;5114348;27;20033;-73
2024/01/10 03:02:56;;;;;;;;;;;;;;;;;;5116366;27;20387;-73
2024/01/10 03:05:21;;;;;;;;;;;;;;;;;;5106414;27;19924;-74
2024/01/10 03:07:47;;;;;;;;;;;;;;;;;;5109441;27;20345;-74
2024/01/10 03:10:13;;;;;;;;;;;;;;;;;;5096870;27;19923;-74
2024/01/10 03:12:40;;;;;;;;;;;;;;;;;;5115878;27;19988;-74
2024/01/10 03:15:06;;;;;;;;;;;;;;;;;;5093967;27;20033;-74
2024/01/10 03:17:33;;;;;;;;;;;;;;;;;;5105083;27;20043;-74
2024/01/10 03:19:59;;;;;;;;;;;;;;;;;;5106075;27;20414;-74
2024/01/10 03:22:25;;;;;;;;;;;;;;;;;;5101855;27;19935;-74
2024/01/10 03:24:51;;;;;;;;;;;;;;;;;;5110913;27;19988;-74
2024/01/10 03:27:17;;;;;;;;;;;;;;;;;;5105898;27;19968;-74
2024/01/10 03:29:43;;;;;;;;;;;;;;;;;;5114007;27;20000;-73
2024/01/10 03:32:09;;;;;;;;;;;;;;;;;;5096816;27;20384;-73
2024/01/10 03:34:35;;;;;;;;;;;;;;;;;;5109292;27;20345;-73
2024/01/10 03:37:01;;;;;;;;;;;;;;;;;;5093199;27;20284;-74
2024/01/10 03:39:27;;;;;;;;;;;;;;;;;;5107761;27;19927;-74
2024/01/10 03:41:52;;;;;;;;;;;;;;;;;;5112879;27;19927;-74
2024/01/10 03:44:18;;;;;;;;;;;;;;;;;;5111582;27;19919;-74
2024/01/10 03:46:44;;;;;;;;;;;;;;;;;;5099389;27;19951;-74
2024/01/10 03:49:10;;;;;;;;;;;;;;;;;;5114324;27;19923;-74
2024/01/10 03:51:37;;;;;;;;;;;;;;;;;;5096068;27;20426;-74
2024/01/10 03:54:03;;;;;;;;;;;;;;;;;;5114514;27;19958;-74
2024/01/10 03:56:29;;;;;;;;;;;;;;;;;;5116580;27;19923;-74
2024/01/10 03:58:55;;;;;;;;;;;;;;;;;;5116121;27;19927;-74
2024/01/10 04:01:21;;;;;;;;;;;;;;;;;;5112299;27;20281;-74
2024/01/10 04:03:47;;;;;;;;;;;;;;;;;;5096351;27;20387;-74
2024/01/10 04:06:12;;;;;;;;;;;;;;;;;;5097535;27;19927;-74
2024/01/10 04:08:38;;;;;;;;;;;;;;;;;;5111439;27;19972;-74
2024/01/10 04:11:04;;;;;;;;;;;;;;;;;;5118238;22;19938;-66
2024/01/10 04:13:30;;;;;;;;;;;;;;;;;;5107229;27;19919;-66
2024/01/10 04:15:56;;;;;;;;;;;;;;;;;;5106904;27;19928;-66
2024/01/10 04:18:22;;;;;;;;;;;;;;;;;;5119521;27;19942;-66
2024/01/10 04:20:48;;;;;;;;;;;;;;;;;;5112411;27;20006;-66
2024/01/10 04:23:14;;;;;;;;;;;;;;;;;;5118515;27;19966;-66
2024/01/10 04:25:40;;;;;;;;;;;;;;;;;;5112444;27;19933;-66
2024/01/10 04:28:06;;;;;;;;;;;;;;;;;;5112640;27;19972;-66
2024/01/10 04:30:32;;;;;;;;;;;;;;;;;;5111600;28;19968;-65
2024/01/10 04:32:58;;;;;;;;;;;;;;;;;;5106436;27;20372;-67
2024/01/10 04:35:24;;;;;;;;;;;;;;;;;;5107471;28;19924;-66
2024/01/10 04:37:50;;;;;;;;;;;;;;;;;;5110642;28;19920;-66
2024/01/10 04:40:16;;;;;;;;;;;;;;;;;;5114108;27;19920;-65
2024/01/10 04:42:41;;;;;;;;;;;;;;;;;;5119266;27;19927;-66
2024/01/10 04:45:07;;;;;;;;;;;;;;;;;;5116659;27;19931;-66
2024/01/10 04:47:33;;;;;;;;;;;;;;;;;;5120165;27;20284;-66
2024/01/10 04:49:59;;;;;;;;;;;;;;;;;;5102870;27;19924;-66
2024/01/10 04:52:25;;;;;;;;;;;;;;;;;;5108996;27;19993;-65
2024/01/10 04:54:51;;;;;;;;;;;;;;;;;;5108454;28;19924;-66
2024/01/10 04:57:17;;;;;;;;;;;;;;;;;;5111094;27;19926;-66
2024/01/10 04:59:43;;;;;;;;;;;;;;;;;;5114660;27;19924;-66
2024/01/10 05:02:09;;;;;;;;;;;;;;;;;;5112020;28;20343;-66
2024/01/10 05:04:35;;;;;;;;;;;;;;;;;;5100731;28;20042;-65
2024/01/10 05:07:00;;;;;;;;;;;;;;;;;;5109041;28;19926;-66
2024/01/10 05:09:26;;;;;;;;;;;;;;;;;;5115266;27;19924;-65
2024/01/10 05:11:53;;;;;;;;;;;;;;;;;;5089926;28;19925;-67
2024/01/10 05:14:19;;;;;;;;;;;;;;;;;;5089010;28;20145;-66
2024/01/10 05:16:45;;;;;;;;;;;;;;;;;;5095194;28;19920;-66
2024/01/10 05:19:11;;;;;;;;;;;;;;;;;;5093972;28;19931;-66
2024/01/10 05:21:37;;;;;;;;;;;;;;;;;;5072989;28;19924;-67
2024/01/10 05:24:03;;;;;;;;;;;;;;;;;;5089525;28;19921;-66
2024/01/10 05:26:29;;;;;;;;;;;;;;;;;;5091388;28;19947;-66
2024/01/10 05:28:55;;;;;;;;;;;;;;;;;;5092853;28;19921;-66
2024/01/10 05:31:21;;;;;;;;;;;;;;;;;;5098346;28;20381;-66
2024/01/10 05:33:46;;;;;;;;;;;;;;;;;;5058951;28;19999;-66
2024/01/10 05:36:12;;;;;;;;;;;;;;;;;;5078327;28;20048;-66
2024/01/10 05:38:39;;;;;;;;;;;;;;;;;;5066405;28;19932;-66
2024/01/10 05:41:05;;;;;;;;;;;;;;;;;;5063572;28;19920;-65
2024/01/10 05:43:31;;;;;;;;;;;;;;;;;;5062255;28;19928;-66
2024/01/10 05:45:58;;;;;;;;;;;;;;;;;;5088656;28;20531;-67
2024/01/10 05:48:24;;;;;;;;;;;;;;;;;;5090515;28;20247;-66
2024/01/10 05:50:50;;;;;;;;;;;;;;;;;;5084650;28;19932;-65
2024/01/10 05:53:19;;;;;;;;;;;;;;;;;;5067336;28;20134;-66
2024/01/10 05:55:44;;;;;;;;;;;;;;;;;;5092912;28;20400;-66
2024/01/10 05:58:10;;;;;;;;;;;;;;;;;;5077855;28;19977;-66
2024/01/10 06:00:36;;;;;;;;;;;;;;;;;;5090425;28;19948;-65
2024/01/10 06:03:02;;;;;;;;;;;;;;;;;;5084640;28;19928;-66
2024/01/10 06:05:28;;;;;;;;;;;;;;;;;;5092385;28;19929;-66
2024/01/10 06:07:54;;;;;;;;;;;;;;;;;;5095826;28;20317;-66
2024/01/10 06:10:20;;;;;;;;;;;;;;;;;;5085090;28;19928;-65
2024/01/10 06:12:47;;;;;;;;;;;;;;;;;;5103422;27;19935;-66
2024/01/10 06:15:13;;;;;;;;;;;;;;;;;;5104129;28;19927;-65
2024/01/10 06:17:39;;;;;;;;;;;;;;;;;;5105240;27;20273;-66
2024/01/10 06:20:06;;;;;;;;;;;;;;;;;;5098507;28;19927;-65
2024/01/10 06:22:32;;;;;;;;;;;;;;;;;;5106753;27;19966;-69
2024/01/10 06:24:58;;;;;;;;;;;;;;;;;;5099991;28;20037;-66
2024/01/10 06:27:24;;;;;;;;;;;;;;;;;;5092870;27;19998;-66
2024/01/10 06:29:50;;;;;;;;;;;;;;;;;;5111391;28;20524;-66
2024/01/10 06:32:16;;;;;;;;;;;;;;;;;;5084699;27;19955;-66
2024/01/10 06:34:42;;;;;;;;;;;;;;;;;;5091623;28;19923;-66
2024/01/10 06:37:08;;;;;;;;;;;;;;;;;;5115506;27;19942;-66
2024/01/10 06:39:34;;;;;;;;;;;;;;;;;;5113527;28;19977;-64
2024/01/10 06:42:00;;;;;;;;;;;;;;;;;;5112305;27;20014;-66
2024/01/10 06:44:28;;;;;;;;;;;;;;;;;;5112562;28;20007;-66
2024/01/10 06:46:54;;;;;;;;;;;;;;;;;;5110116;28;19959;-65
2024/01/10 06:49:20;;;;;;;;;;;;;;;;;;5107601;28;19974;-66
2024/01/10 06:51:46;;;;;;;;;;;;;;;;;;5105944;28;19919;-65
2024/01/10 06:54:13;;;;;;;;;;;;;;;;;;5114942;28;19947;-66
2024/01/10 06:56:39;;;;;;;;;;;;;;;;;;5114961;27;19924;-66
2024/01/10 06:59:05;;;;;;;;;;;;;;;;;;5106480;28;19977;-66
2024/01/10 07:01:31;;;;;;;;;;;;;;;;;;5107873;28;19928;-66
2024/01/10 07:03:57;;;;;;;;;;;;;;;;;;5109125;27;20308;-66
2024/01/10 07:06:23;;;;;;;;;;;;;;;;;;5105963;27;20361;-66
2024/01/10 07:08:49;;;;;;;;;;;;;;;;;;5105748;27;19977;-66
2024/01/10 07:11:15;;;;;;;;;;;;;;;;;;5107430;28;19947;-65
2024/01/10 07:13:41;;;;;;;;;;;;;;;;;;5070783;28;19927;-66
2024/01/10 07:16:07;;;;;;;;;;;;;;;;;;5073768;28;19920;-66
2024/01/10 07:18:33;;;;;;;;;;;;;;;;;;5091344;28;19950;-67
2024/01/10 07:20:59;;;;;;;;;;;;;;;;;;5071880;28;19924;-66
2024/01/10 07:23:25;;;;;;;;;;;;;;;;;;5088626;28;19965;-66
2024/01/10 07:25:51;;;;;;;;;;;;;;;;;;5087727;28;20391;-65
2024/01/10 07:28:17;;;;;;;;;;;;;;;;;;5062386;28;20039;-67
2024/01/10 07:30:44;;;;;;;;;;;;;;;;;;5070511;28;20029;-65
2024/01/10 07:33:10;;;;;;;;;;;;;;;;;;5074269;28;19928;-66
2024/01/10 07:35:36;;;;;;;;;;;;;;;;;;5066149;28;20016;-66
2024/01/10 07:38:02;;;;;;;;;;;;;;;;;;5068611;28;19964;-65
2024/01/10 07:40:28;;;;;;;;;;;;;;;;;;5064253;28;20015;-67
2024/01/10 07:42:54;;;;;;;;;;;;;;;;;;5092133;28;20296;-66
2024/01/10 07:45:19;;;;;;;;;;;;;;;;;;5083175;28;20012;-66
2024/01/10 07:47:46;;;;;;;;;;;;;;;;;;5064513;28;19927;-65
2024/01/10 07:50:14;;;;;;;;;;;;;;;;;;5068014;28;20028;-66
2024/01/10 07:52:40;;;;;;;;;;;;;;;;;;5066985;28;19989;-66
2024/01/10 07:55:06;;;;;;;;;;;;;;;;;;5044887;28;20012;-66
2024/01/10 07:57:32;;;;;;;;;;;;;;;;;;5073864;28;19973;-66
2024/01/10 07:59:58;;;;;;;;;;;;;;;;;;5067859;28;20376;-66
2024/01/10 08:02:24;;;;;;;;;;;;;;;;;;5088245;28;19931;-66
2024/01/10 08:04:51;;;;;;;;;;;;;;;;;;5087910;28;20288;-66
2024/01/10 08:07:17;;;;;;;;;;;;;;;;;;5052268;28;19948;-67
2024/01/10 08:09:43;;;;;;;;;;;;;;;;;;5048336;28;19920;-67
2024/01/10 08:12:09;;;;;;;;;;;;;;;;;;5090161;28;19928;-66
2024/01/10 08:14:35;;;;;;;;;;;;;;;;;;5065989;28;19924;-66
2024/01/10 08:17:01;;;;;;;;;;;;;;;;;;5081470;28;20328;-66
2024/01/10 08:19:27;;;;;;;;;;;;;;;;;;5094019;28;19970;-66
2024/01/10 08:21:53;;;;;;;;;;;;;;;;;;5044108;28;19921;-66
2024/01/10 08:24:19;;;;;;;;;;;;;;;;;;5094759;28;19928;-66
2024/01/10 08:26:45;;;;;;;;;;;;;;;;;;5085582;28;19935;-65
2024/01/10 08:29:10;;;;;;;;;;;;;;;;;;5067246;28;20301;-66
2024/01/10 08:31:36;;;;;;;;;;;;;;;;;;5082366;28;20365;-66
2024/01/10 08:34:02;;;;;;;;;;;;;;;;;;5068641;28;19924;-66
2024/01/10 08:36:28;;;;;;;;;;;;;;;;;;5084894;28;20019;-66
2024/01/10 08:38:54;;;;;;;;;;;;;;;;;;5081053;28;19924;-66
2024/01/10 08:41:20;;;;;;;;;;;;;;;;;;5084435;28;19927;-66
2024/01/10 08:43:46;;;;;;;;;;;;;;;;;;5082728;28;19931;-66
2024/01/10 08:46:12;;;;;;;;;;;;;;;;;;5081867;28;19966;-66
2024/01/10 08:48:38;;;;;;;;;;;;;;;;;;5085377;28;19967;-66
2024/01/10 08:51:04;;;;;;;;;;;;;;;;;;5086517;28;20322;-66
2024/01/10 08:53:30;;;;;;;;;;;;;;;;;;5081491;28;20018;-66
2024/01/10 08:55:56;;;;;;;;;;;;;;;;;;5092517;28;20369;-66
2024/01/10 08:58:22;;;;;;;;;;;;;;;;;;5075016;28;19924;-66
2024/01/10 09:00:47;;;;;;;;;;;;;;;;;;5042871;28;19927;-67
2024/01/10 09:03:13;;;;;;;;;;;;;;;;;;5089244;28;19928;-68
2024/01/10 09:05:39;;;;;;;;;;;;;;;;;;5059485;28;20014;-67
2024/01/10 09:08:05;;;;;;;;;;;;;;;;;;5072829;28;19965;-66
2024/01/10 09:10:31;;;;;;;;;;;;;;;;;;5064825;28;20022;-67
2024/01/10 09:12:57;;;;;;;;;;;;;;;;;;5096256;28;19932;-66
2024/01/10 09:15:23;;;;;;;;;;;;;;;;;;5108844;27;19928;-66
2024/01/10 09:17:49;;;;;;;;;;;;;;;;;;5105689;28;20617;-66
2024/01/10 09:20:15;;;;;;;;;;;;;;;;;;5104674;28;19924;-66
2024/01/10 09:22:41;;;;;;;;;;;;;;;;;;5110538;27;20010;-67
2024/01/10 09:25:08;;;;;;;;;;;;;;;;;;5097130;28;20015;-67
2024/01/10 09:27:34;;;;;;;;;;;;;;;;;;5107203;28;20013;-67
2024/01/10 09:30:01;;;;;;;;;;;;;;;;;;5080264;28;20011;-66
2024/01/10 09:32:28;;;;;;;;;;;;;;;;;;5111809;28;19924;-67
2024/01/10 09:34:54;;;;;;;;;;;;;;;;;;5108767;28;19920;-66
2024/01/10 09:37:20;;;;;;;;;;;;;;;;;;5101431;28;19926;-67
2024/01/10 09:39:46;;;;;;;;;;;;;;;;;;5104669;28;19928;-66
2024/01/10 09:42:12;;;;;;;;;;;;;;;;;;5111660;28;20356;-66
2024/01/10 09:44:37;;;;;;;;;;;;;;;;;;5099648;28;20026;-66
2024/01/10 09:47:05;;;;;;;;;;;;;;;;;;5105702;28;20019;-66
2024/01/10 09:49:31;;;;;;;;;;;;;;;;;;5106493;28;19976;-66
2024/01/10 09:51:56;;;;;;;;;;;;;;;;;;5098231;28;19920;-65
2024/01/10 09:54:22;;;;;;;;;;;;;;;;;;5099258;28;20030;-66
2024/01/10 09:56:48;;;;;;;;;;;;;;;;;;5104353;28;20006;-67
2024/01/10 09:59:14;;;;;;;;;;;;;;;;;;5099901;28;20003;-66
2024/01/10 10:01:40;;;;;;;;;;;;;;;;;;5107076;28;20423;-66
2024/01/10 10:04:07;;;;;;;;;;;;;;;;;;5110724;28;20039;-66
2024/01/10 10:06:33;;;;;;;;;;;;;;;;;;5103950;28;19920;-67
2024/01/10 10:08:59;;;;;;;;;;;;;;;;;;5103575;28;19931;-66
2024/01/10 10:11:25;;;;;;;;;;;;;;;;;;5123695;22;19928;-70
2024/01/10 10:13:51;;;;;;;;;;;;;;;;;;5125649;27;19972;-70
2024/01/10 10:16:17;;;;;;;;;;;;;;;;;;5124102;28;20356;-70
2024/01/10 10:18:44;;;;;;;;;;;;;;;;;;5128473;28;19931;-70
2024/01/10 10:21:11;;;;;;;;;;;;;;;;;;5126616;28;19988;-70
2024/01/10 10:23:37;;;;;;;;;;;;;;;;;;5129099;28;20326;-70
2024/01/10 10:26:03;;;;;;;;;;;;;;;;;;5103519;28;19926;-70
2024/01/10 10:28:29;;;;;;;;;;;;;;;;;;5084620;27;20015;-71
2024/01/10 10:30:55;;;;;;;;;;;;;;;;;;5115598;27;19930;-71
2024/01/10 10:33:21;;;;;;;;;;;;;;;;;;5124375;27;19992;-70
2024/01/10 10:35:47;;;;;;;;;;;;;;;;;;5132301;27;20007;-70
2024/01/10 10:38:13;;;;;;;;;;;;;;;;;;5113253;27;19970;-70
2024/01/10 10:40:39;;;;;;;;;;;;;;;;;;5128899;27;19935;-70
2024/01/10 10:43:05;;;;;;;;;;;;;;;;;;5102799;27;20441;-70
2024/01/10 10:45:31;;;;;;;;;;;;;;;;;;5092494;27;19954;-70
2024/01/10 10:47:57;;;;;;;;;;;;;;;;;;5108226;27;19926;-70
2024/01/10 10:50:23;;;;;;;;;;;;;;;;;;5130775;27;20495;-70
2024/01/10 10:52:49;;;;;;;;;;;;;;;;;;5133138;27;19940;-69
2024/01/10 10:55:15;;;;;;;;;;;;;;;;;;5133784;27;19919;-70
2024/01/10 10:57:42;;;;;;;;;;;;;;;;;;5135789;27;19919;-70
2024/01/10 11:00:08;;;;;;;;;;;;;;;;;;5104605;27;19923;-67
2024/01/10 11:02:35;;;;;;;;;;;;;;;;;;5121548;27;20257;-68
2024/01/10 11:05:01;;;;;;;;;;;;;;;;;;5093229;27;20368;-68
2024/01/10 11:07:27;;;;;;;;;;;;;;;;;;5118848;27;19925;-68
2024/01/10 11:09:53;;;;;;;;;;;;;;;;;;5127425;27;19924;-68
2024/01/10 11:12:18;;;;;;;;;;;;;;;;;;5112125;27;19934;-68
2024/01/10 11:14:44;;;;;;;;;;;;;;;;;;5106593;27;19980;-69
2024/01/10 11:17:11;;;;;;;;;;;;;;;;;;5127350;27;20023;-70
2024/01/10 11:19:37;;;;;;;;;;;;;;;;;;5130380;27;19930;-70
2024/01/10 11:22:03;;;;;;;;;;;;;;;;;;5106490;27;20018;-70
2024/01/10 11:24:29;;;;;;;;;;;;;;;;;;5107067;27;19935;-70
2024/01/10 11:26:55;;;;;;;;;;;;;;;;;;5110571;27;19927;-69
2024/01/10 11:29:21;;;;;;;;;;;;;;;;;;5104936;27;20372;-69
2024/01/10 11:31:47;;;;;;;;;;;;;;;;;;5094483;27;19919;-69
2024/01/10 11:34:13;;;;;;;;;;;;;;;;;;5126297;27;19919;-69
2024/01/10 11:36:39;;;;;;;;;;;;;;;;;;5113891;27;19927;-68
2024/01/10 11:39:05;;;;;;;;;;;;;;;;;;5110769;27;19929;-68
2024/01/10 11:41:31;;;;;;;;;;;;;;;;;;5131819;27;19919;-68
2024/01/10 11:43:57;;;;;;;;;;;;;;;;;;5134105;27;19923;-68
2024/01/10 11:46:23;;;;;;;;;;;;;;;;;;5105584;27;19926;-69
2024/01/10 11:48:49;;;;;;;;;;;;;;;;;;5110165;27;19930;-69
2024/01/10 11:51:16;;;;;;;;;;;;;;;;;;5113162;27;19962;-69
2024/01/10 11:53:42;;;;;;;;;;;;;;;;;;5107062;27;19928;-69
2024/01/10 11:56:08;;;;;;;;;;;;;;;;;;5126981;27;19919;-69
2024/01/10 11:58:34;;;;;;;;;;;;;;;;;;5130766;27;19927;-69
2024/01/10 12:01:00;;;;;;;;;;;;;;;;;;5110960;27;19923;-69
2024/01/10 12:03:26;;;;;;;;;;;;;;;;;;5121510;27;19919;-69
2024/01/10 12:05:52;;;;;;;;;;;;;;;;;;5114066;27;19919;-69
2024/01/10 12:08:19;;;;;;;;;;;;;;;;;;5131052;27;19924;-69
2024/01/10 12:10:45;;;;;;;;;;;;;;;;;;5119407;27;19920;-69
2024/01/10 12:13:11;;;;;;;;;;;;;;;;;;5119143;27;21308;-69
2024/01/10 12:15:37;;;;;;;;;;;;;;;;;;5132513;27;19923;-68
2024/01/10 12:18:04;;;;;;;;;;;;;;;;;;5129574;27;19919;-69
2024/01/10 12:20:30;;;;;;;;;;;;;;;;;;5132835;27;19937;-69
2024/01/10 12:22:56;;;;;;;;;;;;;;;;;;5110519;27;19919;-68
2024/01/10 12:25:22;;;;;;;;;;;;;;;;;;5131903;27;19931;-69
2024/01/10 12:27:47;;;;;;;;;;;;;;;;;;5124046;27;19923;-69
2024/01/10 12:30:13;;;;;;;;;;;;;;;;;;5110141;27;19927;-68
2024/01/10 12:32:39;;;;;;;;;;;;;;;;;;5111749;27;19927;-69
2024/01/10 12:35:06;;;;;;;;;;;;;;;;;;5111211;27;20292;-68
2024/01/10 12:37:31;;;;;;;;;;;;;;;;;;5134711;27;20042;-69
2024/01/10 12:39:57;;;;;;;;;;;;;;;;;;5105965;27;19963;-70
2024/01/10 12:42:23;;;;;;;;;;;;;;;;;;5110077;27;19919;-67
2024/01/10 12:44:49;;;;;;;;;;;;;;;;;;5103357;27;19924;-68
2024/01/10 12:47:15;;;;;;;;;;;;;;;;;;5138494;27;19923;-69
2024/01/10 12:49:41;;;;;;;;;;;;;;;;;;5135054;27;19919;-68
2024/01/10 12:52:07;;;;;;;;;;;;;;;;;;5113734;27;19919;-68
2024/01/10 12:54:33;;;;;;;;;;;;;;;;;;5136425;27;19923;-68
2024/01/10 12:56:59;;;;;;;;;;;;;;;;;;5137336;27;19972;-68
2024/01/10 12:59:25;;;;;;;;;;;;;;;;;;5125734;27;19946;-68
2024/01/10 13:01:51;;;;;;;;;;;;;;;;;;5133963;27;19919;-68
2024/01/10 13:04:17;;;;;;;;;;;;;;;;;;5127554;27;19923;-68
2024/01/10 13:06:43;;;;;;;;;;;;;;;;;;5130277;27;19966;-68
2024/01/10 13:09:09;;;;;;;;;;;;;;;;;;5136113;27;19954;-68
2024/01/10 13:11:35;;;;;;;;;;;;;;;;;;5137489;27;19938;-68
2024/01/10 13:14:01;;;;;;;;;;;;;;;;;;5129910;27;19927;-68
2024/01/10 13:16:27;;;;;;;;;;;;;;;;;;5136691;27;19927;-68
2024/01/10 13:18:54;;;;;;;;;;;;;;;;;;5103238;27;19999;-68
2024/01/10 13:21:20;;;;;;;;;;;;;;;;;;5133257;27;19930;-68
2024/01/10 13:23:46;;;;;;;;;;;;;;;;;;5091114;28;19919;-68
2024/01/10 13:26:12;;;;;;;;;;;;;;;;;;5133792;27;19926;-68
2024/01/10 13:28:38;;;;;;;;;;;;;;;;;;5109755;28;20368;-68
2024/01/10 13:31:04;;;;;;;;;;;;;;;;;;5104651;27;19930;-68
2024/01/10 13:33:30;;;;;;;;;;;;;;;;;;5132886;27;19919;-68
2024/01/10 13:35:56;;;;;;;;;;;;;;;;;;5133436;27;20489;-67
2024/01/10 13:38:24;;;;;;;;;;;;;;;;;;5132871;27;19924;-67
2024/01/10 13:40:50;;;;;;;;;;;;;;;;;;5107865;27;19927;-68
2024/01/10 13:43:16;;;;;;;;;;;;;;;;;;5128672;27;19919;-68
2024/01/10 13:45:42;;;;;;;;;;;;;;;;;;5128285;27;20558;-68
2024/01/10 13:48:10;;;;;;;;;;;;;;;;;;5112813;28;19923;-67
2024/01/10 13:50:35;;;;;;;;;;;;;;;;;;5132067;27;19926;-68
2024/01/10 13:53:04;;;;;;;;;;;;;;;;;;5131976;27;19923;-68
2024/01/10 13:55:30;;;;;;;;;;;;;;;;;;5115159;27;19931;-67
2024/01/10 13:57:56;;;;;;;;;;;;;;;;;;5107571;28;19996;-67
2024/01/10 14:00:22;;;;;;;;;;;;;;;;;;5120564;27;19945;-67
2024/01/10 14:02:48;;;;;;;;;;;;;;;;;;5112095;28;20690;-67
2024/01/10 14:05:14;;;;;;;;;;;;;;;;;;5131807;27;19979;-67
2024/01/10 14:07:43;;;;;;;;;;;;;;;;;;5132032;27;20002;-68
2024/01/10 14:10:10;;;;;;;;;;;;;;;;;;5093719;28;19930;-68
2024/01/10 14:12:36;;;;;;;;;;;;;;;;;;5131398;27;19923;-68
2024/01/10 14:15:02;;;;;;;;;;;;;;;;;;5129143;27;19920;-68
2024/01/10 14:17:28;;;;;;;;;;;;;;;;;;5118904;27;19930;-68
2024/01/10 14:19:54;;;;;;;;;;;;;;;;;;5110126;27;19935;-67
2024/01/10 14:22:20;;;;;;;;;;;;;;;;;;5131438;27;19927;-67
2024/01/10 14:24:46;;;;;;;;;;;;;;;;;;5132027;27;19951;-67
2024/01/10 14:27:12;;;;;;;;;;;;;;;;;;5111875;27;19954;-67
2024/01/10 14:29:38;;;;;;;;;;;;;;;;;;5125528;27;19923;-68
2024/01/10 14:32:03;;;;;;;;;;;;;;;;;;5125541;27;19919;-68
2024/01/10 14:34:29;;;;;;;;;;;;;;;;;;5130516;27;19923;-68
2024/01/10 14:36:55;;;;;;;;;;;;;;;;;;5114488;27;19949;-68
2024/01/10 14:39:21;;;;;;;;;;;;;;;;;;5138365;27;20380;-68
2024/01/10 14:41:47;;;;;;;;;;;;;;;;;;5129743;27;19919;-68
2024/01/10 14:44:13;;;;;;;;;;;;;;;;;;5106441;27;19919;-67
2024/01/10 14:46:39;;;;;;;;;;;;;;;;;;5132616;27;19958;-68
2024/01/10 14:49:08;;;;;;;;;;;;;;;;;;5120092;27;20007;-68
2024/01/10 14:51:34;;;;;;;;;;;;;;;;;;5107401;27;20323;-68
2024/01/10 14:54:00;;;;;;;;;;;;;;;;;;5111567;27;20022;-68
2024/01/10 14:56:26;;;;;;;;;;;;;;;;;;5092599;27;19969;-68
2024/01/10 14:58:52;;;;;;;;;;;;;;;;;;5097108;27;20272;-67
2024/01/10 15:01:19;;;;;;;;;;;;;;;;;;5129512;27;19919;-67
2024/01/10 15:03:45;;;;;;;;;;;;;;;;;;5131452;27;20011;-67
2024/01/10 15:06:11;;;;;;;;;;;;;;;;;;5126152;27;20006;-68
2024/01/10 15:08:37;;;;;;;;;;;;;;;;;;5129000;27;20073;-68
2024/01/10 15:11:03;;;;;;;;;;;;;;;;;;5128530;27;19934;-68
2024/01/10 15:13:29;;;;;;;;;;;;;;;;;;5103925;27;19934;-68
2024/01/10 15:15:55;;;;;;;;;;;;;;;;;;5130523;27;19923;-68
2024/01/10 15:18:21;;;;;;;;;;;;;;;;;;5131249;27;19951;-68
2024/01/10 15:20:47;;;;;;;;;;;;;;;;;;5103116;27;19923;-67
2024/01/10 15:23:13;;;;;;;;;;;;;;;;;;5126759;27;19920;-68
2024/01/10 15:25:38;;;;;;;;;;;;;;;;;;5103377;28;19975;-68
2024/01/10 15:28:04;;;;;;;;;;;;;;;;;;5111943;27;19923;-68
2024/01/10 15:30:31;;;;;;;;;;;;;;;;;;5131830;27;19924;-68
2024/01/10 15:32:57;;;;;;;;;;;;;;;;;;5124906;27;20044;-69
2024/01/10 15:35:23;;;;;;;;;;;;;;;;;;5117328;27;19925;-68
2024/01/10 15:37:49;;;;;;;;;;;;;;;;;;5092875;27;20696;-68
2024/01/10 15:40:15;;;;;;;;;;;;;;;;;;5128679;27;20018;-68
2024/01/10 15:42:41;;;;;;;;;;;;;;;;;;5126268;27;19959;-68
2024/01/10 15:45:07;;;;;;;;;;;;;;;;;;5129936;27;19923;-68
2024/01/10 15:47:33;;;;;;;;;;;;;;;;;;5128501;27;19946;-68
2024/01/10 15:49:59;;;;;;;;;;;;;;;;;;5119491;27;19931;-68
2024/01/10 15:52:26;;;;;;;;;;;;;;;;;;5107740;27;19923;-68
2024/01/10 15:54:53;;;;;;;;;;;;;;;;;;5121696;27;19969;-68
2024/01/10 15:57:19;;;;;;;;;;;;;;;;;;5118599;27;20381;-68
2024/01/10 15:59:45;;;;;;;;;;;;;;;;;;5106420;27;19927;-68
2024/01/10 16:02:11;;;;;;;;;;;;;;;;;;5101366;28;19980;-68
2024/01/10 16:04:37;;;;;;;;;;;;;;;;;;5104083;27;20000;-68
2024/01/10 16:07:03;;;;;;;;;;;;;;;;;;5128897;27;20425;-68
2024/01/10 16:09:29;;;;;;;;;;;;;;;;;;5101661;27;19927;-68
2024/01/10 16:11:55;;;;;;;;;;;;;;;;;;5129744;27;19931;-68
2024/01/10 16:14:21;;;;;;;;;;;;;;;;;;5122808;27;20408;-68
2024/01/10 16:16:47;;;;;;;;;;;;;;;;;;5120964;27;20010;-68
2024/01/10 16:19:13;;;;;;;;;;;;;;;;;;5127706;27;19928;-68
2024/01/10 16:21:39;;;;;;;;;;;;;;;;;;5089017;27;19923;-68
2024/01/10 16:24:05;;;;;;;;;;;;;;;;;;5124952;27;20079;-68
2024/01/10 16:26:31;;;;;;;;;;;;;;;;;;5123021;27;20633;-69
2024/01/10 16:28:57;;;;;;;;;;;;;;;;;;5122553;27;20002;-69
2024/01/10 16:31:23;;;;;;;;;;;;;;;;;;5102070;27;20042;-69
2024/01/10 16:33:50;;;;;;;;;;;;;;;;;;5124979;27;20124;-68
2024/01/10 16:36:16;;;;;;;;;;;;;;;;;;5126709;27;19927;-68